APL Coral — WDF6832 — position and weather

sailwx.info

Track history (hours):
 
Tides and Currents Weather Stations Pressure Air Temp Water Temp Dewpoint Dewpoint Depression Visibility Wind Speed Wind Dir Waves Ship Positions

APL Coral

Owner: APL Maritime Ltd., Bethesda, MD. More information available from US FCC via Universal Licensing System and Coast Guard Vessel Documentation Center.

Last reported at 2017-Jan-12 20:12 UTC. Time now 2017-Jan-18 12:12 UTC.
Position N 31°04' E 122°33'.

Length 274 m; draft 9.4 m.

Type: Cargo ship. MMSI: 367478280.

Date/timePositionNaut miles runAvg speedWind from/ knotsBaromVisibWave heightAir tempDewpointWater temp
2017-Jan-12 20:12N 31°04' E 122°33'913.7
2017-Jan-12 19:33N 31°06' E 122°23'1414.4
2017-Jan-12 18:33N 31°12' E 122°08'1313.3
2017-Jan-12 17:33N 31°16' E 121°53'1110.7
2017-Jan-12 16:33N 31°20' E 121°41'7 6.3
2017-Jan-12 15:32N 31°23' E 121°34'0 0.0
2017-Jan-12 14:32N 31°23' E 121°34'0 0.0
2017-Jan-12 13:32N 31°23' E 121°34'0 0.0
2017-Jan-12 12:29N 31°23' E 121°34'0 0.0
2017-Jan-12 11:32N 31°23' E 121°34'0 0.0
2017-Jan-12 10:32N 31°23' E 121°34'0 0.0
2017-Jan-12 09:32N 31°23' E 121°34'0 0.0
2017-Jan-12 08:32N 31°23' E 121°34'0 0.0
2017-Jan-12 07:32N 31°23' E 121°34'0 0.0
2017-Jan-12 06:32N 31°23' E 121°34'0 0.0
2017-Jan-12 05:26N 31°23' E 121°34'0 0.0
2017-Jan-12 04:32N 31°23' E 121°34'0 0.0
2017-Jan-12 03:29N 31°23' E 121°34'0 0.0
2017-Jan-12 02:29N 31°23' E 121°34'0 0.0
2017-Jan-12 01:32N 31°23' E 121°34'0 0.0
2017-Jan-12 00:32N 31°23' E 121°34'0 0.0
2017-Jan-11 23:32N 31°23' E 121°34'0 0.0
2017-Jan-11 22:32N 31°23' E 121°34'0 0.0
2017-Jan-11 21:32N 31°23' E 121°34'0 0.0
2017-Jan-11 20:29N 31°23' E 121°34'0 0.0
2017-Jan-11 19:32N 31°23' E 121°34'0 0.0
2017-Jan-11 18:32N 31°23' E 121°34'0 0.0
2017-Jan-11 17:29N 31°23' E 121°34'0 0.0
2017-Jan-11 16:32N 31°23' E 121°34'0 0.0
2017-Jan-11 15:32N 31°23' E 121°34'1 0.8
2017-Jan-11 14:33N 31°23' E 121°35'1010.2
2017-Jan-11 13:34N 31°19' E 121°45'1110.6
2017-Jan-11 12:33N 31°15' E 121°57'1211.9
2017-Jan-11 11:32N 31°11' E 122°10'1111.5
2017-Jan-11 10:34N 31°06' E 122°22'10 8.5
2017-Jan-11 09:19N 31°09' E 122°34'1 0.0
2017-Jan-10 03:21N 31°10' E 122°35'  
2017-Jan-03 23:33N 01°14' E 104°01'1312.9
2017-Jan-03 22:33N 01°12' E 103°48'3 3.4
2017-Jan-03 21:33N 01°15' E 103°47'0 0.0
2017-Jan-03 20:33N 01°15' E 103°47'0 0.0
2017-Jan-03 19:27N 01°15' E 103°47'0 0.0
2017-Jan-03 18:33N 01°15' E 103°47'0 0.0
2017-Jan-03 17:27N 01°15' E 103°47'0 0.0
2017-Jan-03 16:33N 01°15' E 103°47'0 0.0
2017-Jan-03 15:27N 01°15' E 103°47'0 0.0
2017-Jan-03 14:33N 01°15' E 103°47'0 0.0
2017-Jan-03 13:33N 01°15' E 103°47'0 0.0
2017-Jan-03 12:33N 01°15' E 103°47'0 0.0
2017-Jan-03 11:27N 01°15' E 103°47'1 0.8
2017-Jan-03 10:33N 01°15' E 103°47'8 7.7
2017-Jan-03 09:33N 01°14' E 103°55'2 2.0
2017-Jan-03 08:23N 01°17' E 103°54'0 0.1
2017-Jan-03 07:32N 01°17' E 103°54'0 0.1
2017-Jan-03 04:32N 01°17' E 103°54'0 0.0
2017-Jan-03 03:20N 01°17' E 103°54'0 0.0
2017-Jan-03 02:23N 01°17' E 103°54'0 0.0
2017-Jan-03 01:26N 01°17' E 103°54'0 0.0
2017-Jan-03 00:32N 01°17' E 103°54'0 0.0
2017-Jan-02 22:05N 01°17' E 103°54'0 0.0
2017-Jan-02 21:29N 01°17' E 103°54'0 0.0
2017-Jan-02 20:32N 01°17' E 103°54'  
Track history (hours):
 
Tides and Currents Weather Stations Pressure Air Temp Water Temp Dewpoint Dewpoint Depression Visibility Wind Speed Wind Dir Waves Ship Positions

APL Coral

Owner: APL Maritime Ltd., Bethesda, MD. More information available from US FCC via Universal Licensing System and Coast Guard Vessel Documentation Center.

Last reported at 2017-Jan-12 20:12 UTC. Time now 2017-Jan-18 12:12 UTC.
Position N 31°04' E 122°33'.

Length 274 m; draft 9.4 m.

Type: Cargo ship. MMSI: 367478280.

Date/timePositionNaut miles runAvg speedWind from/ knotsBaromVisibWave heightAir tempDewpointWater temp
2017-Jan-12 20:12N 31°04' E 122°33'913.7
2017-Jan-12 19:33N 31°06' E 122°23'1414.4
2017-Jan-12 18:33N 31°12' E 122°08'1313.3
2017-Jan-12 17:33N 31°16' E 121°53'1110.7
2017-Jan-12 16:33N 31°20' E 121°41'7 6.3
2017-Jan-12 15:32N 31°23' E 121°34'0 0.0
2017-Jan-12 14:32N 31°23' E 121°34'0 0.0
2017-Jan-12 13:32N 31°23' E 121°34'0 0.0
2017-Jan-12 12:29N 31°23' E 121°34'0 0.0
2017-Jan-12 11:32N 31°23' E 121°34'0 0.0
2017-Jan-12 10:32N 31°23' E 121°34'0 0.0
2017-Jan-12 09:32N 31°23' E 121°34'0 0.0
2017-Jan-12 08:32N 31°23' E 121°34'0 0.0
2017-Jan-12 07:32N 31°23' E 121°34'0 0.0
2017-Jan-12 06:32N 31°23' E 121°34'0 0.0
2017-Jan-12 05:26N 31°23' E 121°34'0 0.0
2017-Jan-12 04:32N 31°23' E 121°34'0 0.0
2017-Jan-12 03:29N 31°23' E 121°34'0 0.0
2017-Jan-12 02:29N 31°23' E 121°34'0 0.0
2017-Jan-12 01:32N 31°23' E 121°34'0 0.0
2017-Jan-12 00:32N 31°23' E 121°34'0 0.0
2017-Jan-11 23:32N 31°23' E 121°34'0 0.0
2017-Jan-11 22:32N 31°23' E 121°34'0 0.0
2017-Jan-11 21:32N 31°23' E 121°34'0 0.0
2017-Jan-11 20:29N 31°23' E 121°34'0 0.0
2017-Jan-11 19:32N 31°23' E 121°34'0 0.0
2017-Jan-11 18:32N 31°23' E 121°34'0 0.0
2017-Jan-11 17:29N 31°23' E 121°34'0 0.0
2017-Jan-11 16:32N 31°23' E 121°34'0 0.0
2017-Jan-11 15:32N 31°23' E 121°34'1 0.8
2017-Jan-11 14:33N 31°23' E 121°35'1010.2
2017-Jan-11 13:34N 31°19' E 121°45'1110.6
2017-Jan-11 12:33N 31°15' E 121°57'1211.9
2017-Jan-11 11:32N 31°11' E 122°10'1111.5
2017-Jan-11 10:34N 31°06' E 122°22'10 8.5
2017-Jan-11 09:19N 31°09' E 122°34'1 0.0
2017-Jan-10 03:21N 31°10' E 122°35'  
2017-Jan-03 23:33N 01°14' E 104°01'1312.9
2017-Jan-03 22:33N 01°12' E 103°48'3 3.4
2017-Jan-03 21:33N 01°15' E 103°47'0 0.0
2017-Jan-03 20:33N 01°15' E 103°47'0 0.0
2017-Jan-03 19:27N 01°15' E 103°47'0 0.0
2017-Jan-03 18:33N 01°15' E 103°47'0 0.0
2017-Jan-03 17:27N 01°15' E 103°47'0 0.0
2017-Jan-03 16:33N 01°15' E 103°47'0 0.0
2017-Jan-03 15:27N 01°15' E 103°47'0 0.0
2017-Jan-03 14:33N 01°15' E 103°47'0 0.0
2017-Jan-03 13:33N 01°15' E 103°47'0 0.0
2017-Jan-03 12:33N 01°15' E 103°47'0 0.0
2017-Jan-03 11:27N 01°15' E 103°47'1 0.8
2017-Jan-03 10:33N 01°15' E 103°47'8 7.7
2017-Jan-03 09:33N 01°14' E 103°55'2 2.0
2017-Jan-03 08:23N 01°17' E 103°54'0 0.1
2017-Jan-03 07:32N 01°17' E 103°54'0 0.1
2017-Jan-03 04:32N 01°17' E 103°54'0 0.0
2017-Jan-03 03:20N 01°17' E 103°54'0 0.0
2017-Jan-03 02:23N 01°17' E 103°54'0 0.0
2017-Jan-03 01:26N 01°17' E 103°54'0 0.0
2017-Jan-03 00:32N 01°17' E 103°54'0 0.0
2017-Jan-02 22:05N 01°17' E 103°54'0 0.0
2017-Jan-02 21:29N 01°17' E 103°54'0 0.0
2017-Jan-02 20:32N 01°17' E 103°54'  

Dump ship's entire track history